Airfield :
LOGIN :

Register | Disclaimer

   EN    FR    IT 

 










Legend :    VFR   Marginal VFR   IFR   Intensive IFR   Very Intensive IFR
Visi :
Ceiling :
>= 8 km
>= 3000ft
5 to 8 km
1000 to 3000 ft
1500m to 5 km
500 to 1000 ft
800 to 1500m
200 to 500 ft
< 800m
< 200 ft
Symbols :   Thunderstorms  Fog  Heavy snow  Heavy precipitations  Wind > 20 kt
SIGMETs :     Misc.  Thunderstorms  Icing  Turbulence  Mountain Waves  Volcanic Ashes






- Airport Elevation : 650 ft
- IATA code : ZJI


LSZL - Locarno

CURRENT METAR :
  • 070350Z AUTO 00000KT 8000NDV NCD M02/M02 Q1014 RMK

EXPIRED METARs :
  • 070320Z AUTO 00000KT 5000NDV BR NCD M02/M02 Q1014 RMK
  • 070220Z AUTO 00000KT 9999NDV NCD M02/M02 Q1014 RMK
  • 070150Z AUTO VRB02KT 6000NDV BCFG NCD M02/M02 Q1015 RMK
  • 070120Z AUTO 07001KT 1300NDV R08/1200VP2000U R26/0800V1600D FG NCD M02/M02 Q1015 RMK

TAF TAF LSZL
Valid from the 07 at 03:00 until the 07 at 12:00 UTC


070225Z 0703/0712 VRB02KT 6000 BCFG NSC
PROB40 0703/0709 3000
PROB30
TEMPO 0704/0708 0500 FZFG VV002
BECMG 0708/0710 CAVOK



MET'MAP, your aeronautical weather chart ! - Copyright ORBIFLY December 2007 - Disclaimer

ORBIFLY MET'MAP TEAM :

Programming & Development : Alexandra Zaïnal
Original concept : Baudouin d'Aumeries
Technical & hardware support : Manuel Goepfert
Assistance : Marc-Olivier Méhu




SOURCES & CREDITS :

   NOAA